sensor_id;sensor_type;location;lat;lon;timestamp;pressure;altitude;pressure_sealevel;temperature;humidity
68197;BME280;55019;49.382;11.358;2023-01-28T00:02:06;97095.34;;;-0.59;89.53
68197;BME280;55019;49.382;11.358;2023-01-28T00:04:32;97104.03;;;-0.78;90.69
68197;BME280;55019;49.382;11.358;2023-01-28T00:06:57;97101.03;;;-0.69;90.33
68197;BME280;55019;49.382;11.358;2023-01-28T00:09:23;97092.91;;;-0.91;90.94
68197;BME280;55019;49.382;11.358;2023-01-28T00:11:48;97096.84;;;-0.70;91.10
68197;BME280;55019;49.382;11.358;2023-01-28T00:14:14;97092.16;;;-0.62;90.54
68197;BME280;55019;49.382;11.358;2023-01-28T00:16:39;97089.97;;;-0.68;90.36
68197;BME280;55019;49.382;11.358;2023-01-28T00:19:05;97096.16;;;-0.89;90.56
68197;BME280;55019;49.382;11.358;2023-01-28T00:21:30;97086.19;;;-0.92;91.54
68197;BME280;55019;49.382;11.358;2023-01-28T00:23:56;97097.38;;;-1.12;92.76
68197;BME280;55019;49.382;11.358;2023-01-28T00:26:22;97092.91;;;-0.76;91.64
68197;BME280;55019;49.382;11.358;2023-01-28T00:28:49;97087.50;;;-0.85;91.68
68197;BME280;55019;49.382;11.358;2023-01-28T00:31:20;97088.31;;;-0.85;91.57
68197;BME280;55019;49.382;11.358;2023-01-28T00:33:48;97087.66;;;-0.73;91.38
68197;BME280;55019;49.382;11.358;2023-01-28T00:36:14;97096.09;;;-0.72;90.55
68197;BME280;55019;49.382;11.358;2023-01-28T00:38:40;97094.19;;;-0.53;89.94
68197;BME280;55019;49.382;11.358;2023-01-28T00:41:15;97102.06;;;-0.58;89.99
68197;BME280;55019;49.382;11.358;2023-01-28T00:43:41;97091.91;;;-0.58;89.89
68197;BME280;55019;49.382;11.358;2023-01-28T00:46:08;97090.09;;;-0.56;90.59
68197;BME280;55019;49.382;11.358;2023-01-28T00:48:35;97091.88;;;-0.42;89.57
68197;BME280;55019;49.382;11.358;2023-01-28T00:51:01;97089.69;;;-0.48;89.65
68197;BME280;55019;49.382;11.358;2023-01-28T00:53:27;97086.19;;;-0.46;89.91
68197;BME280;55019;49.382;11.358;2023-01-28T00:55:53;97084.53;;;-0.47;89.45
68197;BME280;55019;49.382;11.358;2023-01-28T00:58:19;97084.72;;;-0.50;89.38
68197;BME280;55019;49.382;11.358;2023-01-28T01:00:44;97093.28;;;-0.37;89.57
68197;BME280;55019;49.382;11.358;2023-01-28T01:03:10;97108.53;;;-0.52;89.53
68197;BME280;55019;49.382;11.358;2023-01-28T01:05:36;97103.38;;;-0.51;89.83
68197;BME280;55019;49.382;11.358;2023-01-28T01:08:01;97103.50;;;-0.38;90.53
68197;BME280;55019;49.382;11.358;2023-01-28T01:10:27;97098.59;;;-0.41;90.29
68197;BME280;55019;49.382;11.358;2023-01-28T01:12:52;97102.53;;;-0.36;90.01
68197;BME280;55019;49.382;11.358;2023-01-28T01:15:18;97109.50;;;-0.39;90.37
68197;BME280;55019;49.382;11.358;2023-01-28T01:17:46;97114.06;;;-0.30;89.31
68197;BME280;55019;49.382;11.358;2023-01-28T01:20:15;97118.50;;;-0.49;90.69
68197;BME280;55019;49.382;11.358;2023-01-28T01:22:41;97121.88;;;-0.49;90.59
68197;BME280;55019;49.382;11.358;2023-01-28T01:25:07;97121.38;;;-0.55;90.92
68197;BME280;55019;49.382;11.358;2023-01-28T01:27:32;97119.75;;;-0.56;90.98
68197;BME280;55019;49.382;11.358;2023-01-28T01:29:58;97114.00;;;-0.60;91.13
68197;BME280;55019;49.382;11.358;2023-01-28T01:32:33;97110.72;;;-0.62;91.53
68197;BME280;55019;49.382;11.358;2023-01-28T01:34:59;97112.25;;;-0.73;92.27
68197;BME280;55019;49.382;11.358;2023-01-28T01:37:25;97121.28;;;-0.54;92.19
68197;BME280;55019;49.382;11.358;2023-01-28T01:39:50;97111.56;;;-0.61;92.25
68197;BME280;55019;49.382;11.358;2023-01-28T01:42:16;97115.66;;;-0.59;92.93
68197;BME280;55019;49.382;11.358;2023-01-28T01:44:52;97121.53;;;-0.43;92.04
68197;BME280;55019;49.382;11.358;2023-01-28T01:52:52;97120.16;;;-0.48;92.44
68197;BME280;55019;49.382;11.358;2023-01-28T01:55:20;97122.84;;;-0.51;92.36
68197;BME280;55019;49.382;11.358;2023-01-28T01:57:49;97123.34;;;-0.60;92.27
68197;BME280;55019;49.382;11.358;2023-01-28T02:00:18;97120.72;;;-0.43;92.32
68197;BME280;55019;49.382;11.358;2023-01-28T02:02:48;97129.16;;;-0.58;92.50
68197;BME280;55019;49.382;11.358;2023-01-28T02:05:18;97131.38;;;-0.52;92.53
68197;BME280;55019;49.382;11.358;2023-01-28T02:07:45;97135.88;;;-0.42;92.47
68197;BME280;55019;49.382;11.358;2023-01-28T02:10:12;97131.59;;;-0.26;91.83
68197;BME280;55019;49.382;11.358;2023-01-28T02:12:46;97128.16;;;-0.40;91.69
68197;BME280;55019;49.382;11.358;2023-01-28T02:15:17;97133.56;;;-0.31;91.86
68197;BME280;55019;49.382;11.358;2023-01-28T02:17:44;97134.63;;;-0.35;91.98
68197;BME280;55019;49.382;11.358;2023-01-28T02:20:12;97139.88;;;-0.38;92.20
68197;BME280;55019;49.382;11.358;2023-01-28T02:23:06;97136.09;;;-0.31;91.99
68197;BME280;55019;49.382;11.358;2023-01-28T02:28:53;97145.53;;;-0.33;92.17
68197;BME280;55019;49.382;11.358;2023-01-28T02:31:29;97140.44;;;-0.48;92.12
68197;BME280;55019;49.382;11.358;2023-01-28T02:34:16;97135.78;;;-0.40;92.01
68197;BME280;55019;49.382;11.358;2023-01-28T02:36:51;97147.25;;;-0.49;92.73
68197;BME280;55019;49.382;11.358;2023-01-28T02:39:23;97143.50;;;-0.57;93.11
68197;BME280;55019;49.382;11.358;2023-01-28T02:41:54;97141.28;;;-0.79;95.00
68197;BME280;55019;49.382;11.358;2023-01-28T02:44:20;97132.25;;;-0.84;95.18
68197;BME280;55019;49.382;11.358;2023-01-28T02:46:46;97136.25;;;-0.80;95.31
68197;BME280;55019;49.382;11.358;2023-01-28T02:49:41;97134.47;;;-0.63;95.16
68197;BME280;55019;49.382;11.358;2023-01-28T02:55:23;97136.78;;;-0.58;95.04
68197;BME280;55019;49.382;11.358;2023-01-28T03:00:26;97145.13;;;-0.56;95.42
68197;BME280;55019;49.382;11.358;2023-01-28T03:03:01;97144.28;;;-0.57;95.17
68197;BME280;55019;49.382;11.358;2023-01-28T03:05:40;97143.31;;;-0.54;94.87
68197;BME280;55019;49.382;11.358;2023-01-28T03:08:22;97134.63;;;-0.50;94.51
68197;BME280;55019;49.382;11.358;2023-01-28T03:11:07;97146.75;;;-0.55;94.60
68197;BME280;55019;49.382;11.358;2023-01-28T03:13:51;97138.59;;;-0.60;93.85
68197;BME280;55019;49.382;11.358;2023-01-28T03:16:35;97154.22;;;-0.52;94.22
68197;BME280;55019;49.382;11.358;2023-01-28T03:19:20;97156.41;;;-0.46;93.70
68197;BME280;55019;49.382;11.358;2023-01-28T03:22:05;97146.59;;;-0.52;93.98
68197;BME280;55019;49.382;11.358;2023-01-28T03:24:51;97148.41;;;-0.54;94.26
68197;BME280;55019;49.382;11.358;2023-01-28T03:30:44;97160.03;;;-0.50;94.15
68197;BME280;55019;49.382;11.358;2023-01-28T03:33:31;97156.09;;;-0.40;93.79
68197;BME280;55019;49.382;11.358;2023-01-28T03:36:17;97149.53;;;-0.44;93.65
68197;BME280;55019;49.382;11.358;2023-01-28T03:39:01;97154.94;;;-0.35;93.56
68197;BME280;55019;49.382;11.358;2023-01-28T03:41:27;97160.19;;;-0.38;93.91
68197;BME280;55019;49.382;11.358;2023-01-28T03:43:52;97159.19;;;-0.35;93.94
68197;BME280;55019;49.382;11.358;2023-01-28T03:46:18;97161.00;;;-0.37;93.78
68197;BME280;55019;49.382;11.358;2023-01-28T03:48:44;97160.53;;;-0.44;93.91
68197;BME280;55019;49.382;11.358;2023-01-28T03:51:10;97166.56;;;-0.46;94.16
68197;BME280;55019;49.382;11.358;2023-01-28T03:53:37;97168.22;;;-0.45;94.23
68197;BME280;55019;49.382;11.358;2023-01-28T03:56:03;97167.06;;;-0.40;94.03
68197;BME280;55019;49.382;11.358;2023-01-28T03:58:29;97172.63;;;-0.33;93.67
68197;BME280;55019;49.382;11.358;2023-01-28T04:01:10;97181.41;;;-0.54;93.50
68197;BME280;55019;49.382;11.358;2023-01-28T04:03:36;97183.44;;;-0.45;93.51
68197;BME280;55019;49.382;11.358;2023-01-28T04:06:07;97177.97;;;-0.53;94.20
68197;BME280;55019;49.382;11.358;2023-01-28T04:08:34;97175.75;;;-0.59;94.15
68197;BME280;55019;49.382;11.358;2023-01-28T04:10:59;97170.16;;;-0.66;94.09
68197;BME280;55019;49.382;11.358;2023-01-28T04:13:41;97175.47;;;-0.55;94.25
68197;BME280;55019;49.382;11.358;2023-01-28T04:16:07;97176.09;;;-0.50;93.75
68197;BME280;55019;49.382;11.358;2023-01-28T04:18:33;97192.28;;;-0.52;93.77
68197;BME280;55019;49.382;11.358;2023-01-28T04:20:59;97188.34;;;-0.42;93.65
68197;BME280;55019;49.382;11.358;2023-01-28T04:23:24;97188.41;;;-0.28;92.83
68197;BME280;55019;49.382;11.358;2023-01-28T04:25:50;97184.50;;;-0.34;92.61
68197;BME280;55019;49.382;11.358;2023-01-28T04:28:16;97183.59;;;-0.48;93.36
68197;BME280;55019;49.382;11.358;2023-01-28T04:30:42;97193.34;;;-0.41;93.17
68197;BME280;55019;49.382;11.358;2023-01-28T04:33:07;97199.66;;;-0.48;94.03
68197;BME280;55019;49.382;11.358;2023-01-28T04:35:33;97193.94;;;-0.36;93.42
68197;BME280;55019;49.382;11.358;2023-01-28T04:37:58;97199.00;;;-0.51;93.40
68197;BME280;55019;49.382;11.358;2023-01-28T04:40:23;97205.56;;;-0.47;94.36
68197;BME280;55019;49.382;11.358;2023-01-28T04:42:56;97191.00;;;-0.44;93.78
68197;BME280;55019;49.382;11.358;2023-01-28T04:45:22;97204.97;;;-0.37;93.16
68197;BME280;55019;49.382;11.358;2023-01-28T04:47:47;97202.00;;;-0.29;93.00
68197;BME280;55019;49.382;11.358;2023-01-28T04:50:13;97196.03;;;-0.28;93.25
68197;BME280;55019;49.382;11.358;2023-01-28T04:52:39;97204.56;;;-0.29;92.52
68197;BME280;55019;49.382;11.358;2023-01-28T04:55:05;97200.66;;;-0.19;92.70
68197;BME280;55019;49.382;11.358;2023-01-28T04:57:31;97199.16;;;-0.39;93.05
68197;BME280;55019;49.382;11.358;2023-01-28T04:59:56;97202.19;;;-0.32;93.29
68197;BME280;55019;49.382;11.358;2023-01-28T05:02:22;97201.63;;;-0.37;93.14
68197;BME280;55019;49.382;11.358;2023-01-28T05:04:47;97207.03;;;-0.43;94.00
68197;BME280;55019;49.382;11.358;2023-01-28T05:07:12;97201.78;;;-0.40;94.35
68197;BME280;55019;49.382;11.358;2023-01-28T05:09:38;97206.06;;;-0.41;93.98
68197;BME280;55019;49.382;11.358;2023-01-28T05:12:04;97204.72;;;-0.32;94.12
68197;BME280;55019;49.382;11.358;2023-01-28T05:14:29;97205.56;;;-0.47;93.91
68197;BME280;55019;49.382;11.358;2023-01-28T05:16:58;97189.00;;;-0.54;94.33
68197;BME280;55019;49.382;11.358;2023-01-28T05:19:24;97202.66;;;-0.57;94.67
68197;BME280;55019;49.382;11.358;2023-01-28T05:21:49;97199.50;;;-0.60;95.31
68197;BME280;55019;49.382;11.358;2023-01-28T05:24:15;97193.25;;;-0.39;94.13
68197;BME280;55019;49.382;11.358;2023-01-28T05:26:41;97200.13;;;-0.41;94.21
68197;BME280;55019;49.382;11.358;2023-01-28T05:29:06;97199.16;;;-0.39;94.48
68197;BME280;55019;49.382;11.358;2023-01-28T05:31:32;97186.97;;;-0.48;94.21
68197;BME280;55019;49.382;11.358;2023-01-28T05:33:58;97199.41;;;-0.43;94.42
68197;BME280;55019;49.382;11.358;2023-01-28T05:36:23;97209.72;;;-0.31;94.50
68197;BME280;55019;49.382;11.358;2023-01-28T05:38:49;97214.56;;;-0.57;94.40
68197;BME280;55019;49.382;11.358;2023-01-28T05:41:14;97212.75;;;-0.55;94.86
68197;BME280;55019;49.382;11.358;2023-01-28T05:43:40;97211.69;;;-0.51;95.04
68197;BME280;55019;49.382;11.358;2023-01-28T05:46:06;97211.34;;;-0.45;95.24
68197;BME280;55019;49.382;11.358;2023-01-28T05:48:31;97206.53;;;-0.34;94.57
68197;BME280;55019;49.382;11.358;2023-01-28T05:50:56;97214.38;;;-0.54;94.94
68197;BME280;55019;49.382;11.358;2023-01-28T05:53:22;97206.13;;;-0.73;95.98
68197;BME280;55019;49.382;11.358;2023-01-28T05:55:53;97210.44;;;-0.75;96.84
68197;BME280;55019;49.382;11.358;2023-01-28T05:58:19;97215.38;;;-0.72;97.48
68197;BME280;55019;49.382;11.358;2023-01-28T06:00:45;97200.75;;;-0.84;97.27
68197;BME280;55019;49.382;11.358;2023-01-28T06:03:11;97211.22;;;-0.90;97.73
68197;BME280;55019;49.382;11.358;2023-01-28T06:05:37;97205.16;;;-1.03;98.91
68197;BME280;55019;49.382;11.358;2023-01-28T06:08:03;97209.03;;;-1.13;100.00
68197;BME280;55019;49.382;11.358;2023-01-28T06:10:28;97215.00;;;-1.14;100.00
68197;BME280;55019;49.382;11.358;2023-01-28T06:12:54;97221.16;;;-1.03;100.00
68197;BME280;55019;49.382;11.358;2023-01-28T06:15:20;97225.22;;;-0.99;100.00
68197;BME280;55019;49.382;11.358;2023-01-28T06:17:45;97230.75;;;-0.75;99.64
68197;BME280;55019;49.382;11.358;2023-01-28T06:20:11;97217.81;;;-1.03;100.00
68197;BME280;55019;49.382;11.358;2023-01-28T06:22:36;97211.06;;;-1.20;100.00
68197;BME280;55019;49.382;11.358;2023-01-28T06:25:03;97228.56;;;-0.98;100.00
68197;BME280;55019;49.382;11.358;2023-01-28T06:27:28;97224.75;;;-1.07;100.00
68197;BME280;55019;49.382;11.358;2023-01-28T06:29:54;97221.56;;;-1.10;100.00
68197;BME280;55019;49.382;11.358;2023-01-28T06:32:19;97239.69;;;-1.01;100.00
68197;BME280;55019;49.382;11.358;2023-01-28T06:34:45;97244.03;;;-0.87;100.00
68197;BME280;55019;49.382;11.358;2023-01-28T06:37:12;97237.00;;;-0.98;100.00
68197;BME280;55019;49.382;11.358;2023-01-28T06:39:38;97239.38;;;-0.95;100.00
68197;BME280;55019;49.382;11.358;2023-01-28T06:42:04;97244.22;;;-1.07;100.00
68197;BME280;55019;49.382;11.358;2023-01-28T06:44:29;97243.81;;;-1.15;100.00
68197;BME280;55019;49.382;11.358;2023-01-28T06:46:54;97251.94;;;-1.26;100.00
68197;BME280;55019;49.382;11.358;2023-01-28T06:49:20;97252.38;;;-1.18;100.00
68197;BME280;55019;49.382;11.358;2023-01-28T06:51:46;97256.56;;;-1.34;100.00
68197;BME280;55019;49.382;11.358;2023-01-28T06:54:12;97254.09;;;-1.35;100.00
68197;BME280;55019;49.382;11.358;2023-01-28T06:56:37;97250.13;;;-1.24;100.00
68197;BME280;55019;49.382;11.358;2023-01-28T06:59:03;97264.25;;;-1.18;100.00
68197;BME280;55019;49.382;11.358;2023-01-28T07:01:28;97260.50;;;-1.28;100.00
68197;BME280;55019;49.382;11.358;2023-01-28T07:03:55;97259.16;;;-1.18;100.00
68197;BME280;55019;49.382;11.358;2023-01-28T07:06:21;97267.28;;;-0.95;100.00
68197;BME280;55019;49.382;11.358;2023-01-28T07:08:46;97277.25;;;-1.09;100.00
68197;BME280;55019;49.382;11.358;2023-01-28T07:11:12;97269.88;;;-0.96;100.00
68197;BME280;55019;49.382;11.358;2023-01-28T07:13:37;97274.56;;;-0.89;100.00
68197;BME280;55019;49.382;11.358;2023-01-28T07:16:03;97271.97;;;-1.04;100.00
68197;BME280;55019;49.382;11.358;2023-01-28T07:18:29;97285.13;;;-1.13;100.00
68197;BME280;55019;49.382;11.358;2023-01-28T07:20:55;97285.91;;;-1.13;100.00
68197;BME280;55019;49.382;11.358;2023-01-28T07:23:21;97285.34;;;-1.01;100.00
68197;BME280;55019;49.382;11.358;2023-01-28T07:25:47;97287.41;;;-1.09;100.00
68197;BME280;55019;49.382;11.358;2023-01-28T07:28:12;97283.63;;;-1.17;100.00
68197;BME280;55019;49.382;11.358;2023-01-28T07:30:38;97284.97;;;-1.10;100.00
68197;BME280;55019;49.382;11.358;2023-01-28T07:33:03;97283.72;;;-0.86;100.00
68197;BME280;55019;49.382;11.358;2023-01-28T07:35:29;97282.38;;;-0.76;100.00
68197;BME280;55019;49.382;11.358;2023-01-28T07:37:57;97286.44;;;-1.06;100.00
68197;BME280;55019;49.382;11.358;2023-01-28T07:40:24;97302.09;;;-0.98;100.00
68197;BME280;55019;49.382;11.358;2023-01-28T07:42:50;97285.38;;;-0.85;100.00
68197;BME280;55019;49.382;11.358;2023-01-28T07:45:17;97300.16;;;-0.93;100.00
68197;BME280;55019;49.382;11.358;2023-01-28T07:47:42;97275.63;;;-0.93;100.00
68197;BME280;55019;49.382;11.358;2023-01-28T07:50:09;97297.84;;;-0.81;100.00
68197;BME280;55019;49.382;11.358;2023-01-28T07:52:36;97303.34;;;-0.73;100.00
68197;BME280;55019;49.382;11.358;2023-01-28T07:55:09;97304.16;;;-0.40;100.00
68197;BME280;55019;49.382;11.358;2023-01-28T07:57:36;97299.16;;;-0.41;100.00
68197;BME280;55019;49.382;11.358;2023-01-28T08:00:02;97294.78;;;-0.55;100.00
68197;BME280;55019;49.382;11.358;2023-01-28T08:02:28;97305.22;;;-0.76;100.00
68197;BME280;55019;49.382;11.358;2023-01-28T08:04:54;97308.78;;;-0.80;100.00
68197;BME280;55019;49.382;11.358;2023-01-28T08:07:23;97310.56;;;-0.65;100.00
68197;BME280;55019;49.382;11.358;2023-01-28T08:09:50;97313.97;;;-0.49;100.00
68197;BME280;55019;49.382;11.358;2023-01-28T08:12:15;97312.59;;;-0.39;100.00
68197;BME280;55019;49.382;11.358;2023-01-28T08:14:41;97312.06;;;-0.61;100.00
68197;BME280;55019;49.382;11.358;2023-01-28T08:17:06;97318.84;;;-0.62;100.00
68197;BME280;55019;49.382;11.358;2023-01-28T08:19:32;97315.59;;;-0.48;100.00
68197;BME280;55019;49.382;11.358;2023-01-28T08:21:57;97322.41;;;-0.66;100.00
68197;BME280;55019;49.382;11.358;2023-01-28T08:24:23;97322.16;;;-0.44;100.00
68197;BME280;55019;49.382;11.358;2023-01-28T08:26:48;97325.69;;;-0.64;100.00
68197;BME280;55019;49.382;11.358;2023-01-28T08:29:14;97324.28;;;-0.52;100.00
68197;BME280;55019;49.382;11.358;2023-01-28T08:31:39;97321.88;;;-0.23;100.00
68197;BME280;55019;49.382;11.358;2023-01-28T08:34:05;97333.69;;;-0.06;99.66
68197;BME280;55019;49.382;11.358;2023-01-28T08:36:30;97325.34;;;-0.08;98.96
68197;BME280;55019;49.382;11.358;2023-01-28T08:38:55;97320.56;;;-0.14;99.10
68197;BME280;55019;49.382;11.358;2023-01-28T08:41:21;97311.81;;;-0.57;100.00
68197;BME280;55019;49.382;11.358;2023-01-28T08:43:47;97313.53;;;-0.57;100.00
68197;BME280;55019;49.382;11.358;2023-01-28T08:46:12;97319.88;;;-0.33;100.00
68197;BME280;55019;49.382;11.358;2023-01-28T08:48:38;97317.19;;;-0.46;100.00
68197;BME280;55019;49.382;11.358;2023-01-28T08:51:03;97329.09;;;-0.15;100.00
68197;BME280;55019;49.382;11.358;2023-01-28T08:53:29;97318.50;;;-0.08;99.93
68197;BME280;55019;49.382;11.358;2023-01-28T08:55:54;97322.53;;;0.11;98.79
68197;BME280;55019;49.382;11.358;2023-01-28T08:58:20;97331.66;;;-0.32;100.00
68197;BME280;55019;49.382;11.358;2023-01-28T09:00:46;97324.66;;;-0.12;99.69
68197;BME280;55019;49.382;11.358;2023-01-28T09:03:12;97332.38;;;-0.13;98.93
68197;BME280;55019;49.382;11.358;2023-01-28T09:05:37;97331.22;;;0.07;98.34
68197;BME280;55019;49.382;11.358;2023-01-28T09:08:05;97330.16;;;-0.19;99.81
68197;BME280;55019;49.382;11.358;2023-01-28T09:10:31;97335.56;;;-0.25;100.00
68197;BME280;55019;49.382;11.358;2023-01-28T09:12:56;97333.53;;;-0.03;100.00
68197;BME280;55019;49.382;11.358;2023-01-28T09:15:22;97332.22;;;-0.10;99.02
68197;BME280;55019;49.382;11.358;2023-01-28T09:17:48;97329.41;;;-0.21;100.00
68197;BME280;55019;49.382;11.358;2023-01-28T09:20:13;97334.50;;;-0.21;99.83
68197;BME280;55019;49.382;11.358;2023-01-28T09:22:39;97332.38;;;-0.13;99.78
68197;BME280;55019;49.382;11.358;2023-01-28T09:25:04;97337.13;;;-0.07;99.34
68197;BME280;55019;49.382;11.358;2023-01-28T09:27:30;97342.56;;;0.02;98.25
68197;BME280;55019;49.382;11.358;2023-01-28T09:29:56;97345.38;;;-0.04;98.62
68197;BME280;55019;49.382;11.358;2023-01-28T09:32:21;97338.44;;;-0.01;97.86
68197;BME280;55019;49.382;11.358;2023-01-28T09:34:48;97350.31;;;0.14;97.84
68197;BME280;55019;49.382;11.358;2023-01-28T09:37:13;97345.41;;;0.27;96.78
68197;BME280;55019;49.382;11.358;2023-01-28T09:39:39;97352.38;;;0.23;96.64
68197;BME280;55019;49.382;11.358;2023-01-28T09:45:15;97363.59;;;0.50;95.42
68197;BME280;55019;49.382;11.358;2023-01-28T09:47:53;97363.53;;;0.52;95.26
68197;BME280;55019;49.382;11.358;2023-01-28T09:50:30;97363.03;;;0.61;94.93
68197;BME280;55019;49.382;11.358;2023-01-28T09:53:01;97370.91;;;0.41;95.65
68197;BME280;55019;49.382;11.358;2023-01-28T09:55:33;97362.03;;;0.63;93.58
68197;BME280;55019;49.382;11.358;2023-01-28T09:58:00;97363.59;;;0.35;93.87
68197;BME280;55019;49.382;11.358;2023-01-28T10:00:36;97367.31;;;0.29;94.45
68197;BME280;55019;49.382;11.358;2023-01-28T10:08:58;97365.97;;;0.38;95.37
68197;BME280;55019;49.382;11.358;2023-01-28T10:14:10;97370.09;;;0.40;94.32
68197;BME280;55019;49.382;11.358;2023-01-28T10:16:45;97371.25;;;0.35;94.50
68197;BME280;55019;49.382;11.358;2023-01-28T10:19:18;97367.06;;;0.34;93.65
68197;BME280;55019;49.382;11.358;2023-01-28T10:22:00;97369.25;;;0.40;92.92
68197;BME280;55019;49.382;11.358;2023-01-28T10:24:33;97367.63;;;0.23;93.44
68197;BME280;55019;49.382;11.358;2023-01-28T10:26:59;97364.63;;;0.32;93.72
68197;BME280;55019;49.382;11.358;2023-01-28T10:29:29;97365.31;;;0.50;93.33
68197;BME280;55019;49.382;11.358;2023-01-28T10:32:05;97362.41;;;0.71;92.32
68197;BME280;55019;49.382;11.358;2023-01-28T10:34:40;97360.03;;;0.84;91.70
68197;BME280;55019;49.382;11.358;2023-01-28T10:37:05;97359.69;;;0.90;90.95
68197;BME280;55019;49.382;11.358;2023-01-28T10:39:31;97356.91;;;0.94;90.95
68197;BME280;55019;49.382;11.358;2023-01-28T10:41:57;97351.47;;;1.00;90.37
68197;BME280;55019;49.382;11.358;2023-01-28T10:44:41;97350.84;;;0.81;91.71
68197;BME280;55019;49.382;11.358;2023-01-28T10:47:28;97352.66;;;0.79;90.80
68197;BME280;55019;49.382;11.358;2023-01-28T10:49:55;97354.78;;;0.71;91.38
68197;BME280;55019;49.382;11.358;2023-01-28T10:52:23;97351.78;;;0.65;90.83
68197;BME280;55019;49.382;11.358;2023-01-28T10:55:02;97351.16;;;0.75;89.53
68197;BME280;55019;49.382;11.358;2023-01-28T10:57:28;97345.88;;;0.64;89.45
68197;BME280;55019;49.382;11.358;2023-01-28T10:59:53;97354.75;;;0.57;90.86
68197;BME280;55019;49.382;11.358;2023-01-28T11:02:40;97357.56;;;0.53;89.95
68197;BME280;55019;49.382;11.358;2023-01-28T11:07:30;97362.63;;;0.53;89.19
68197;BME280;55019;49.382;11.358;2023-01-28T11:09:56;97345.97;;;0.32;90.21
68197;BME280;55019;49.382;11.358;2023-01-28T11:12:26;97357.16;;;0.29;90.26
68197;BME280;55019;49.382;11.358;2023-01-28T11:15:03;97360.09;;;0.53;90.05
68197;BME280;55019;49.382;11.358;2023-01-28T11:17:32;97363.53;;;0.36;89.05
68197;BME280;55019;49.382;11.358;2023-01-28T11:20:07;97367.28;;;0.45;88.62
68197;BME280;55019;49.382;11.358;2023-01-28T11:22:42;97376.88;;;0.71;89.24
68197;BME280;55019;49.382;11.358;2023-01-28T11:25:23;97369.41;;;0.68;88.78
68197;BME280;55019;49.382;11.358;2023-01-28T11:27:52;97374.00;;;0.77;87.99
68197;BME280;55019;49.382;11.358;2023-01-28T11:30:22;97373.75;;;0.81;87.54
68197;BME280;55019;49.382;11.358;2023-01-28T11:33:13;97374.50;;;0.68;87.56
68197;BME280;55019;49.382;11.358;2023-01-28T11:35:40;97373.53;;;0.55;88.68
68197;BME280;55019;49.382;11.358;2023-01-28T11:38:20;97367.97;;;0.33;88.40
68197;BME280;55019;49.382;11.358;2023-01-28T11:40:55;97363.28;;;0.41;88.54
68197;BME280;55019;49.382;11.358;2023-01-28T11:43:26;97366.88;;;0.52;88.43
68197;BME280;55019;49.382;11.358;2023-01-28T12:02:21;97370.59;;;0.31;87.16
68197;BME280;55019;49.382;11.358;2023-01-28T12:05:07;97369.69;;;0.17;89.42
68197;BME280;55019;49.382;11.358;2023-01-28T12:16:15;97365.66;;;0.44;87.68
68197;BME280;55019;49.382;11.358;2023-01-28T12:24:39;97352.00;;;0.76;85.94
68197;BME280;55019;49.382;11.358;2023-01-28T12:41:20;97365.09;;;0.99;85.89
68197;BME280;55019;49.382;11.358;2023-01-28T12:44:03;97363.09;;;0.75;85.39
68197;BME280;55019;49.382;11.358;2023-01-28T12:46:45;97352.53;;;0.51;86.23
68197;BME280;55019;49.382;11.358;2023-01-28T12:49:49;97362.50;;;0.85;85.48
68197;BME280;55019;49.382;11.358;2023-01-28T12:52:22;97359.59;;;0.91;84.01
68197;BME280;55019;49.382;11.358;2023-01-28T12:55:03;97358.00;;;1.04;83.68
68197;BME280;55019;49.382;11.358;2023-01-28T12:57:32;97350.50;;;0.87;84.46
68197;BME280;55019;49.382;11.358;2023-01-28T13:02:53;97351.50;;;0.85;83.40
68197;BME280;55019;49.382;11.358;2023-01-28T13:05:33;97342.09;;;1.01;83.91
68197;BME280;55019;49.382;11.358;2023-01-28T13:08:10;97344.91;;;0.96;83.70
68197;BME280;55019;49.382;11.358;2023-01-28T13:10:44;97345.09;;;0.78;84.45
68197;BME280;55019;49.382;11.358;2023-01-28T13:15:43;97348.94;;;0.85;83.96
68197;BME280;55019;49.382;11.358;2023-01-28T13:21:02;97351.03;;;0.78;83.35
68197;BME280;55019;49.382;11.358;2023-01-28T13:23:37;97353.38;;;0.36;85.79
68197;BME280;55019;49.382;11.358;2023-01-28T13:28:35;97358.72;;;0.77;85.05
68197;BME280;55019;49.382;11.358;2023-01-28T13:31:11;97355.59;;;0.87;83.81
68197;BME280;55019;49.382;11.358;2023-01-28T13:36:28;97352.69;;;0.64;82.80
68197;BME280;55019;49.382;11.358;2023-01-28T13:39:19;97363.19;;;0.58;83.80
68197;BME280;55019;49.382;11.358;2023-01-28T13:41:53;97370.63;;;0.76;82.11
68197;BME280;55019;49.382;11.358;2023-01-28T13:44:25;97382.88;;;0.54;83.42
68197;BME280;55019;49.382;11.358;2023-01-28T13:52:16;97372.53;;;0.57;83.40
68197;BME280;55019;49.382;11.358;2023-01-28T13:54:50;97358.06;;;0.73;82.03
68197;BME280;55019;49.382;11.358;2023-01-28T14:00:18;97382.53;;;0.76;82.41
68197;BME280;55019;49.382;11.358;2023-01-28T14:03:04;97379.31;;;0.72;81.97
68197;BME280;55019;49.382;11.358;2023-01-28T14:11:47;97387.78;;;0.57;80.59
68197;BME280;55019;49.382;11.358;2023-01-28T14:19:48;97384.22;;;0.30;82.74
68197;BME280;55019;49.382;11.358;2023-01-28T14:22:18;97391.09;;;0.28;83.29
68197;BME280;55019;49.382;11.358;2023-01-28T14:24:44;97368.63;;;0.21;83.69
68197;BME280;55019;49.382;11.358;2023-01-28T14:30:00;97392.03;;;0.72;81.83
68197;BME280;55019;49.382;11.358;2023-01-28T14:32:28;97400.16;;;0.63;82.32
68197;BME280;55019;49.382;11.358;2023-01-28T14:34:57;97402.72;;;0.48;82.73
68197;BME280;55019;49.382;11.358;2023-01-28T14:37:28;97404.06;;;0.39;81.71
68197;BME280;55019;49.382;11.358;2023-01-28T14:40:00;97404.28;;;0.35;82.22
68197;BME280;55019;49.382;11.358;2023-01-28T14:42:41;97410.38;;;0.32;81.78
68197;BME280;55019;49.382;11.358;2023-01-28T14:51:49;97416.31;;;0.16;82.42
68197;BME280;55019;49.382;11.358;2023-01-28T14:54:35;97415.84;;;0.25;82.43
68197;BME280;55019;49.382;11.358;2023-01-28T15:00:13;97419.13;;;0.27;82.28
68197;BME280;55019;49.382;11.358;2023-01-28T15:02:42;97420.94;;;0.25;82.45
68197;BME280;55019;49.382;11.358;2023-01-28T15:05:13;97425.16;;;0.24;81.70